Arlington, Kentucky
Current Conditions -  °F | °C
As of 8:15 AM on Thursday 18 Dec 2014 (Local Time) from KCIR Reporting Station
Overcast Overcast  
Wind Chill: -1°   Ceiling: 900
Heat Index:   Visibility: 7mi
Dew Point:   Wind: 6mph
Humidity: 97%   Direction: 40°NE
Pressure: 30.29"   Gusts: NA
Location:  36.79°N, 89.01°W
Report Text: KCIR 181415Z AUTO 04005KT 7SM OVC009 02/02 A3029 RMK AO2 T00200015
Loading
Personal Weather Stations






























Interactive Weather Map New forecast layout! Learn more

10-Day Weather Forecast

Advertisements
Track Severe Weather on mobile